sensor_id;sensor_type;location;lat;lon;timestamp;P1;durP1;ratioP1;P2;durP2;ratioP2
3280;SDS011;1652;51.31805600;6.20194400;2023-11-19T00:00:08;6.20;;;3.40;;
3280;SDS011;1652;51.31805600;6.20194400;2023-11-19T00:02:39;5.13;;;4.63;;
3280;SDS011;1652;51.31805600;6.20194400;2023-11-19T00:05:08;16.50;;;11.17;;
3280;SDS011;1652;51.31805600;6.20194400;2023-11-19T00:07:39;7.50;;;6.30;;
3280;SDS011;1652;51.31805600;6.20194400;2023-11-19T00:10:10;16.90;;;7.03;;
3280;SDS011;1652;51.31805600;6.20194400;2023-11-19T00:12:39;6.17;;;5.57;;
3280;SDS011;1652;51.31805600;6.20194400;2023-11-19T00:15:11;6.40;;;5.10;;
3280;SDS011;1652;51.31805600;6.20194400;2023-11-19T00:17:41;6.50;;;4.43;;
3280;SDS011;1652;51.31805600;6.20194400;2023-11-19T00:20:15;17.33;;;5.27;;
3280;SDS011;1652;51.31805600;6.20194400;2023-11-19T00:22:48;4.80;;;4.37;;
3280;SDS011;1652;51.31805600;6.20194400;2023-11-19T00:25:18;5.63;;;4.60;;
3280;SDS011;1652;51.31805600;6.20194400;2023-11-19T00:27:46;6.47;;;5.07;;
3280;SDS011;1652;51.31805600;6.20194400;2023-11-19T00:30:13;5.10;;;4.70;;
3280;SDS011;1652;51.31805600;6.20194400;2023-11-19T00:32:41;5.37;;;4.83;;
3280;SDS011;1652;51.31805600;6.20194400;2023-11-19T00:35:08;5.77;;;5.13;;
3280;SDS011;1652;51.31805600;6.20194400;2023-11-19T00:37:41;4.87;;;4.47;;
3280;SDS011;1652;51.31805600;6.20194400;2023-11-19T00:40:15;5.23;;;4.83;;
3280;SDS011;1652;51.31805600;6.20194400;2023-11-19T00:42:45;5.33;;;4.93;;
3280;SDS011;1652;51.31805600;6.20194400;2023-11-19T00:45:12;5.13;;;4.73;;
3280;SDS011;1652;51.31805600;6.20194400;2023-11-19T00:47:39;4.80;;;4.40;;
3280;SDS011;1652;51.31805600;6.20194400;2023-11-19T00:50:07;5.60;;;5.10;;
3280;SDS011;1652;51.31805600;6.20194400;2023-11-19T00:52:38;5.30;;;4.80;;
3280;SDS011;1652;51.31805600;6.20194400;2023-11-19T00:55:05;7.40;;;5.90;;
3280;SDS011;1652;51.31805600;6.20194400;2023-11-19T00:57:34;6.03;;;5.47;;
3280;SDS011;1652;51.31805600;6.20194400;2023-11-19T01:00:02;6.23;;;5.60;;
3280;SDS011;1652;51.31805600;6.20194400;2023-11-19T01:02:36;4.80;;;4.43;;
3280;SDS011;1652;51.31805600;6.20194400;2023-11-19T01:05:03;5.37;;;4.23;;
3280;SDS011;1652;51.31805600;6.20194400;2023-11-19T01:07:30;5.00;;;4.60;;
3280;SDS011;1652;51.31805600;6.20194400;2023-11-19T01:09:57;5.50;;;5.00;;
3280;SDS011;1652;51.31805600;6.20194400;2023-11-19T01:12:24;4.73;;;4.33;;
3280;SDS011;1652;51.31805600;6.20194400;2023-11-19T01:14:51;5.43;;;4.80;;
3280;SDS011;1652;51.31805600;6.20194400;2023-11-19T01:17:18;6.17;;;5.00;;
3280;SDS011;1652;51.31805600;6.20194400;2023-11-19T01:19:45;5.37;;;4.87;;
3280;SDS011;1652;51.31805600;6.20194400;2023-11-19T01:22:12;6.73;;;4.83;;
3280;SDS011;1652;51.31805600;6.20194400;2023-11-19T01:24:39;5.93;;;5.20;;
3280;SDS011;1652;51.31805600;6.20194400;2023-11-19T01:27:06;6.00;;;3.90;;
3280;SDS011;1652;51.31805600;6.20194400;2023-11-19T01:29:33;5.30;;;4.43;;
3280;SDS011;1652;51.31805600;6.20194400;2023-11-19T01:32:00;5.83;;;4.10;;
3280;SDS011;1652;51.31805600;6.20194400;2023-11-19T01:34:27;4.80;;;4.10;;
3280;SDS011;1652;51.31805600;6.20194400;2023-11-19T01:36:55;3.70;;;3.50;;
3280;SDS011;1652;51.31805600;6.20194400;2023-11-19T01:39:22;4.47;;;3.80;;
3280;SDS011;1652;51.31805600;6.20194400;2023-11-19T01:41:48;6.23;;;3.20;;
3280;SDS011;1652;51.31805600;6.20194400;2023-11-19T01:44:15;3.57;;;2.90;;
3280;SDS011;1652;51.31805600;6.20194400;2023-11-19T01:46:43;4.63;;;3.43;;
3280;SDS011;1652;51.31805600;6.20194400;2023-11-19T01:49:14;7.53;;;2.87;;
3280;SDS011;1652;51.31805600;6.20194400;2023-11-19T01:51:43;5.63;;;3.17;;
3280;SDS011;1652;51.31805600;6.20194400;2023-11-19T01:54:10;10.83;;;3.90;;
3280;SDS011;1652;51.31805600;6.20194400;2023-11-19T01:56:38;5.87;;;2.37;;
3280;SDS011;1652;51.31805600;6.20194400;2023-11-19T01:59:07;7.43;;;3.20;;
3280;SDS011;1652;51.31805600;6.20194400;2023-11-19T02:01:36;8.37;;;3.10;;
3280;SDS011;1652;51.31805600;6.20194400;2023-11-19T02:04:07;10.47;;;3.37;;
3280;SDS011;1652;51.31805600;6.20194400;2023-11-19T02:06:36;5.10;;;2.37;;
3280;SDS011;1652;51.31805600;6.20194400;2023-11-19T02:09:08;5.40;;;2.90;;
3280;SDS011;1652;51.31805600;6.20194400;2023-11-19T02:11:35;13.43;;;3.37;;
3280;SDS011;1652;51.31805600;6.20194400;2023-11-19T02:14:02;4.93;;;2.13;;
3280;SDS011;1652;51.31805600;6.20194400;2023-11-19T02:16:31;8.90;;;2.40;;
3280;SDS011;1652;51.31805600;6.20194400;2023-11-19T02:18:59;9.17;;;2.53;;
3280;SDS011;1652;51.31805600;6.20194400;2023-11-19T02:21:26;6.90;;;2.87;;
3280;SDS011;1652;51.31805600;6.20194400;2023-11-19T02:23:53;9.77;;;2.83;;
3280;SDS011;1652;51.31805600;6.20194400;2023-11-19T02:26:23;8.70;;;3.27;;
3280;SDS011;1652;51.31805600;6.20194400;2023-11-19T02:28:55;9.47;;;2.73;;
3280;SDS011;1652;51.31805600;6.20194400;2023-11-19T02:31:22;11.73;;;3.00;;
3280;SDS011;1652;51.31805600;6.20194400;2023-11-19T02:33:49;8.00;;;3.70;;
3280;SDS011;1652;51.31805600;6.20194400;2023-11-19T02:36:16;12.67;;;3.13;;
3280;SDS011;1652;51.31805600;6.20194400;2023-11-19T02:38:43;15.33;;;3.47;;
3280;SDS011;1652;51.31805600;6.20194400;2023-11-19T02:41:10;10.47;;;3.50;;
3280;SDS011;1652;51.31805600;6.20194400;2023-11-19T02:43:37;11.13;;;3.20;;
3280;SDS011;1652;51.31805600;6.20194400;2023-11-19T02:46:05;14.37;;;3.90;;
3280;SDS011;1652;51.31805600;6.20194400;2023-11-19T02:48:38;22.13;;;3.90;;
3280;SDS011;1652;51.31805600;6.20194400;2023-11-19T02:51:05;10.13;;;4.13;;
3280;SDS011;1652;51.31805600;6.20194400;2023-11-19T02:53:36;17.80;;;3.80;;
3280;SDS011;1652;51.31805600;6.20194400;2023-11-19T02:56:03;14.30;;;2.97;;
3280;SDS011;1652;51.31805600;6.20194400;2023-11-19T02:59:06;32.83;;;5.53;;
3280;SDS011;1652;51.31805600;6.20194400;2023-11-19T03:01:41;21.60;;;4.47;;
3280;SDS011;1652;51.31805600;6.20194400;2023-11-19T03:04:10;19.93;;;5.00;;
3280;SDS011;1652;51.31805600;6.20194400;2023-11-19T03:06:38;24.50;;;4.07;;
3280;SDS011;1652;51.31805600;6.20194400;2023-11-19T03:09:05;18.70;;;5.47;;
3280;SDS011;1652;51.31805600;6.20194400;2023-11-19T03:11:37;25.40;;;5.43;;
3280;SDS011;1652;51.31805600;6.20194400;2023-11-19T03:14:04;24.93;;;4.70;;
3280;SDS011;1652;51.31805600;6.20194400;2023-11-19T03:16:31;16.90;;;5.30;;
3280;SDS011;1652;51.31805600;6.20194400;2023-11-19T03:18:59;22.77;;;5.20;;
3280;SDS011;1652;51.31805600;6.20194400;2023-11-19T03:21:29;24.10;;;5.90;;
3280;SDS011;1652;51.31805600;6.20194400;2023-11-19T03:23:58;21.03;;;5.17;;
3280;SDS011;1652;51.31805600;6.20194400;2023-11-19T03:26:28;21.73;;;5.53;;
3280;SDS011;1652;51.31805600;6.20194400;2023-11-19T03:28:55;28.37;;;5.17;;
3280;SDS011;1652;51.31805600;6.20194400;2023-11-19T03:31:23;30.63;;;6.27;;
3280;SDS011;1652;51.31805600;6.20194400;2023-11-19T03:33:51;22.07;;;5.50;;
3280;SDS011;1652;51.31805600;6.20194400;2023-11-19T03:36:20;19.77;;;7.00;;
3280;SDS011;1652;51.31805600;6.20194400;2023-11-19T03:38:47;29.27;;;5.03;;
3280;SDS011;1652;51.31805600;6.20194400;2023-11-19T03:41:14;29.00;;;5.53;;
3280;SDS011;1652;51.31805600;6.20194400;2023-11-19T03:43:41;23.67;;;4.60;;
3280;SDS011;1652;51.31805600;6.20194400;2023-11-19T03:46:17;37.27;;;8.27;;
3280;SDS011;1652;51.31805600;6.20194400;2023-11-19T03:48:46;30.77;;;5.40;;
3280;SDS011;1652;51.31805600;6.20194400;2023-11-19T03:51:14;36.93;;;6.13;;
3280;SDS011;1652;51.31805600;6.20194400;2023-11-19T03:53:42;54.27;;;6.20;;
3280;SDS011;1652;51.31805600;6.20194400;2023-11-19T03:56:12;30.80;;;6.47;;
3280;SDS011;1652;51.31805600;6.20194400;2023-11-19T03:58:39;34.37;;;5.70;;
3280;SDS011;1652;51.31805600;6.20194400;2023-11-19T04:01:10;27.80;;;5.37;;
3280;SDS011;1652;51.31805600;6.20194400;2023-11-19T04:03:38;34.93;;;5.30;;
3280;SDS011;1652;51.31805600;6.20194400;2023-11-19T04:06:16;35.20;;;5.60;;
3280;SDS011;1652;51.31805600;6.20194400;2023-11-19T04:08:43;27.07;;;5.50;;
3280;SDS011;1652;51.31805600;6.20194400;2023-11-19T04:11:11;39.73;;;5.90;;
3280;SDS011;1652;51.31805600;6.20194400;2023-11-19T04:13:38;35.67;;;5.17;;
3280;SDS011;1652;51.31805600;6.20194400;2023-11-19T04:16:05;29.70;;;5.50;;
3280;SDS011;1652;51.31805600;6.20194400;2023-11-19T04:18:32;22.93;;;4.90;;
3280;SDS011;1652;51.31805600;6.20194400;2023-11-19T04:20:59;35.33;;;6.20;;
3280;SDS011;1652;51.31805600;6.20194400;2023-11-19T04:23:26;30.90;;;5.33;;
3280;SDS011;1652;51.31805600;6.20194400;2023-11-19T04:25:53;33.33;;;5.10;;
3280;SDS011;1652;51.31805600;6.20194400;2023-11-19T04:28:20;40.47;;;5.87;;
3280;SDS011;1652;51.31805600;6.20194400;2023-11-19T04:30:47;32.30;;;5.30;;
3280;SDS011;1652;51.31805600;6.20194400;2023-11-19T04:33:14;43.47;;;7.07;;
3280;SDS011;1652;51.31805600;6.20194400;2023-11-19T04:35:41;28.03;;;3.93;;
3280;SDS011;1652;51.31805600;6.20194400;2023-11-19T04:38:08;35.70;;;6.50;;
3280;SDS011;1652;51.31805600;6.20194400;2023-11-19T04:40:35;29.37;;;4.80;;
3280;SDS011;1652;51.31805600;6.20194400;2023-11-19T04:43:02;44.70;;;5.60;;
3280;SDS011;1652;51.31805600;6.20194400;2023-11-19T04:45:29;29.60;;;5.10;;
3280;SDS011;1652;51.31805600;6.20194400;2023-11-19T04:47:56;35.13;;;4.80;;
3280;SDS011;1652;51.31805600;6.20194400;2023-11-19T04:50:22;39.60;;;5.90;;
3280;SDS011;1652;51.31805600;6.20194400;2023-11-19T04:52:49;27.40;;;5.67;;
3280;SDS011;1652;51.31805600;6.20194400;2023-11-19T04:55:16;29.53;;;4.90;;
3280;SDS011;1652;51.31805600;6.20194400;2023-11-19T04:57:44;35.67;;;5.93;;
3280;SDS011;1652;51.31805600;6.20194400;2023-11-19T05:00:11;33.53;;;4.90;;
3280;SDS011;1652;51.31805600;6.20194400;2023-11-19T05:02:42;24.50;;;5.20;;
3280;SDS011;1652;51.31805600;6.20194400;2023-11-19T05:05:10;28.40;;;5.67;;
3280;SDS011;1652;51.31805600;6.20194400;2023-11-19T05:07:37;29.73;;;5.17;;
3280;SDS011;1652;51.31805600;6.20194400;2023-11-19T05:10:04;25.13;;;5.03;;
3280;SDS011;1652;51.31805600;6.20194400;2023-11-19T05:12:32;38.73;;;7.13;;
3280;SDS011;1652;51.31805600;6.20194400;2023-11-19T05:14:59;22.20;;;4.43;;
3280;SDS011;1652;51.31805600;6.20194400;2023-11-19T05:17:26;31.27;;;5.73;;
3280;SDS011;1652;51.31805600;6.20194400;2023-11-19T05:19:54;35.70;;;4.77;;
3280;SDS011;1652;51.31805600;6.20194400;2023-11-19T05:22:20;48.83;;;8.20;;
3280;SDS011;1652;51.31805600;6.20194400;2023-11-19T05:24:48;43.50;;;5.97;;
3280;SDS011;1652;51.31805600;6.20194400;2023-11-19T05:27:16;31.10;;;5.93;;
3280;SDS011;1652;51.31805600;6.20194400;2023-11-19T05:29:43;26.80;;;5.10;;
3280;SDS011;1652;51.31805600;6.20194400;2023-11-19T05:32:10;26.33;;;5.30;;
3280;SDS011;1652;51.31805600;6.20194400;2023-11-19T05:34:37;26.83;;;5.40;;
3280;SDS011;1652;51.31805600;6.20194400;2023-11-19T05:37:17;28.90;;;6.20;;
3280;SDS011;1652;51.31805600;6.20194400;2023-11-19T05:39:45;39.47;;;6.70;;
3280;SDS011;1652;51.31805600;6.20194400;2023-11-19T05:42:12;32.60;;;5.80;;
3280;SDS011;1652;51.31805600;6.20194400;2023-11-19T05:44:39;32.17;;;4.63;;
3280;SDS011;1652;51.31805600;6.20194400;2023-11-19T05:47:07;31.37;;;6.27;;
3280;SDS011;1652;51.31805600;6.20194400;2023-11-19T05:49:34;26.80;;;4.80;;
3280;SDS011;1652;51.31805600;6.20194400;2023-11-19T05:52:01;40.33;;;6.13;;
3280;SDS011;1652;51.31805600;6.20194400;2023-11-19T05:54:29;30.77;;;5.43;;
3280;SDS011;1652;51.31805600;6.20194400;2023-11-19T05:56:58;40.00;;;5.90;;
3280;SDS011;1652;51.31805600;6.20194400;2023-11-19T05:59:24;25.57;;;4.80;;
3280;SDS011;1652;51.31805600;6.20194400;2023-11-19T06:01:52;27.87;;;6.60;;
3280;SDS011;1652;51.31805600;6.20194400;2023-11-19T06:04:19;23.73;;;5.63;;
3280;SDS011;1652;51.31805600;6.20194400;2023-11-19T06:06:46;34.53;;;7.13;;
3280;SDS011;1652;51.31805600;6.20194400;2023-11-19T06:09:13;33.30;;;5.73;;
3280;SDS011;1652;51.31805600;6.20194400;2023-11-19T06:11:40;37.17;;;4.90;;
3280;SDS011;1652;51.31805600;6.20194400;2023-11-19T06:14:07;28.60;;;4.30;;
3280;SDS011;1652;51.31805600;6.20194400;2023-11-19T06:16:34;28.90;;;6.20;;
3280;SDS011;1652;51.31805600;6.20194400;2023-11-19T06:19:03;27.70;;;5.23;;
3280;SDS011;1652;51.31805600;6.20194400;2023-11-19T06:21:30;36.73;;;5.20;;
3280;SDS011;1652;51.31805600;6.20194400;2023-11-19T06:23:58;20.60;;;4.70;;
3280;SDS011;1652;51.31805600;6.20194400;2023-11-19T06:26:25;27.07;;;4.67;;
3280;SDS011;1652;51.31805600;6.20194400;2023-11-19T06:28:53;26.10;;;4.43;;
3280;SDS011;1652;51.31805600;6.20194400;2023-11-19T06:31:20;27.93;;;3.90;;
3280;SDS011;1652;51.31805600;6.20194400;2023-11-19T06:33:48;35.87;;;5.93;;
3280;SDS011;1652;51.31805600;6.20194400;2023-11-19T06:36:15;34.10;;;6.20;;
3280;SDS011;1652;51.31805600;6.20194400;2023-11-19T06:38:44;28.10;;;5.50;;
3280;SDS011;1652;51.31805600;6.20194400;2023-11-19T06:41:11;35.63;;;5.23;;
3280;SDS011;1652;51.31805600;6.20194400;2023-11-19T06:43:38;26.07;;;6.33;;
3280;SDS011;1652;51.31805600;6.20194400;2023-11-19T06:46:14;31.57;;;5.33;;
3280;SDS011;1652;51.31805600;6.20194400;2023-11-19T06:48:42;28.80;;;5.10;;
3280;SDS011;1652;51.31805600;6.20194400;2023-11-19T06:51:11;32.37;;;7.67;;
3280;SDS011;1652;51.31805600;6.20194400;2023-11-19T06:53:38;33.43;;;6.50;;
3280;SDS011;1652;51.31805600;6.20194400;2023-11-19T06:56:18;27.93;;;4.10;;
3280;SDS011;1652;51.31805600;6.20194400;2023-11-19T06:58:49;23.60;;;4.67;;
3280;SDS011;1652;51.31805600;6.20194400;2023-11-19T07:01:17;29.87;;;5.20;;
3280;SDS011;1652;51.31805600;6.20194400;2023-11-19T07:03:45;28.57;;;5.00;;
3280;SDS011;1652;51.31805600;6.20194400;2023-11-19T07:06:15;30.30;;;5.37;;
3280;SDS011;1652;51.31805600;6.20194400;2023-11-19T07:08:42;28.83;;;4.13;;
3280;SDS011;1652;51.31805600;6.20194400;2023-11-19T07:11:13;30.50;;;6.03;;
3280;SDS011;1652;51.31805600;6.20194400;2023-11-19T07:13:43;29.60;;;5.43;;
3280;SDS011;1652;51.31805600;6.20194400;2023-11-19T07:16:10;22.73;;;3.90;;
3280;SDS011;1652;51.31805600;6.20194400;2023-11-19T07:18:37;41.43;;;6.57;;
3280;SDS011;1652;51.31805600;6.20194400;2023-11-19T07:21:04;24.57;;;6.17;;
3280;SDS011;1652;51.31805600;6.20194400;2023-11-19T07:23:31;25.70;;;4.87;;
3280;SDS011;1652;51.31805600;6.20194400;2023-11-19T07:26:00;27.47;;;5.20;;
3280;SDS011;1652;51.31805600;6.20194400;2023-11-19T07:28:28;33.30;;;7.43;;
3280;SDS011;1652;51.31805600;6.20194400;2023-11-19T07:30:55;28.40;;;5.07;;
3280;SDS011;1652;51.31805600;6.20194400;2023-11-19T07:33:24;20.03;;;4.70;;
3280;SDS011;1652;51.31805600;6.20194400;2023-11-19T07:35:51;33.37;;;5.00;;
3280;SDS011;1652;51.31805600;6.20194400;2023-11-19T07:38:18;31.37;;;4.67;;
3280;SDS011;1652;51.31805600;6.20194400;2023-11-19T07:40:45;26.90;;;5.73;;
3280;SDS011;1652;51.31805600;6.20194400;2023-11-19T07:43:16;32.40;;;6.40;;
3280;SDS011;1652;51.31805600;6.20194400;2023-11-19T07:45:43;31.43;;;5.17;;
3280;SDS011;1652;51.31805600;6.20194400;2023-11-19T07:48:12;36.53;;;5.33;;
3280;SDS011;1652;51.31805600;6.20194400;2023-11-19T07:50:40;38.60;;;8.03;;
3280;SDS011;1652;51.31805600;6.20194400;2023-11-19T07:53:10;42.50;;;6.63;;
3280;SDS011;1652;51.31805600;6.20194400;2023-11-19T07:55:38;25.77;;;5.80;;
3280;SDS011;1652;51.31805600;6.20194400;2023-11-19T07:58:08;28.67;;;6.40;;
3280;SDS011;1652;51.31805600;6.20194400;2023-11-19T08:00:34;21.40;;;5.13;;
3280;SDS011;1652;51.31805600;6.20194400;2023-11-19T08:05:27;28.27;;;6.07;;
3280;SDS011;1652;51.31805600;6.20194400;2023-11-19T08:07:54;28.03;;;4.83;;
3280;SDS011;1652;51.31805600;6.20194400;2023-11-19T08:10:21;21.87;;;4.60;;
3280;SDS011;1652;51.31805600;6.20194400;2023-11-19T08:12:48;20.70;;;3.80;;
3280;SDS011;1652;51.31805600;6.20194400;2023-11-19T08:15:15;24.63;;;4.80;;
3280;SDS011;1652;51.31805600;6.20194400;2023-11-19T08:17:57;30.67;;;5.70;;
3280;SDS011;1652;51.31805600;6.20194400;2023-11-19T08:20:25;17.07;;;3.70;;
3280;SDS011;1652;51.31805600;6.20194400;2023-11-19T08:22:52;16.63;;;3.50;;
3280;SDS011;1652;51.31805600;6.20194400;2023-11-19T08:25:19;21.03;;;3.87;;
3280;SDS011;1652;51.31805600;6.20194400;2023-11-19T08:27:46;33.87;;;6.33;;
3280;SDS011;1652;51.31805600;6.20194400;2023-11-19T08:30:13;25.70;;;5.97;;
3280;SDS011;1652;51.31805600;6.20194400;2023-11-19T08:32:40;22.63;;;4.00;;
3280;SDS011;1652;51.31805600;6.20194400;2023-11-19T08:35:07;24.50;;;4.73;;
3280;SDS011;1652;51.31805600;6.20194400;2023-11-19T08:37:35;25.27;;;5.40;;
3280;SDS011;1652;51.31805600;6.20194400;2023-11-19T08:40:03;21.20;;;4.03;;
3280;SDS011;1652;51.31805600;6.20194400;2023-11-19T08:42:31;25.97;;;5.00;;
3280;SDS011;1652;51.31805600;6.20194400;2023-11-19T08:44:57;23.27;;;5.00;;
3280;SDS011;1652;51.31805600;6.20194400;2023-11-19T08:47:25;24.37;;;4.10;;
3280;SDS011;1652;51.31805600;6.20194400;2023-11-19T08:49:52;32.17;;;4.97;;
3280;SDS011;1652;51.31805600;6.20194400;2023-11-19T08:52:22;28.43;;;5.37;;
3280;SDS011;1652;51.31805600;6.20194400;2023-11-19T08:54:49;28.40;;;4.97;;
3280;SDS011;1652;51.31805600;6.20194400;2023-11-19T08:57:16;30.97;;;7.40;;
3280;SDS011;1652;51.31805600;6.20194400;2023-11-19T08:59:43;37.40;;;4.83;;
3280;SDS011;1652;51.31805600;6.20194400;2023-11-19T09:02:12;25.37;;;4.33;;
3280;SDS011;1652;51.31805600;6.20194400;2023-11-19T09:04:39;28.93;;;6.90;;
3280;SDS011;1652;51.31805600;6.20194400;2023-11-19T09:07:07;17.30;;;5.83;;
3280;SDS011;1652;51.31805600;6.20194400;2023-11-19T09:09:37;20.53;;;4.70;;
3280;SDS011;1652;51.31805600;6.20194400;2023-11-19T09:12:04;16.40;;;3.50;;
3280;SDS011;1652;51.31805600;6.20194400;2023-11-19T09:14:31;17.60;;;3.60;;
3280;SDS011;1652;51.31805600;6.20194400;2023-11-19T09:16:58;28.67;;;5.07;;
3280;SDS011;1652;51.31805600;6.20194400;2023-11-19T09:19:26;29.10;;;9.50;;
3280;SDS011;1652;51.31805600;6.20194400;2023-11-19T09:21:53;19.03;;;4.50;;
3280;SDS011;1652;51.31805600;6.20194400;2023-11-19T09:24:20;27.03;;;5.50;;
3280;SDS011;1652;51.31805600;6.20194400;2023-11-19T09:26:47;28.47;;;4.67;;
3280;SDS011;1652;51.31805600;6.20194400;2023-11-19T09:29:14;24.20;;;5.00;;
3280;SDS011;1652;51.31805600;6.20194400;2023-11-19T09:31:41;28.80;;;5.57;;
3280;SDS011;1652;51.31805600;6.20194400;2023-11-19T09:34:08;26.93;;;5.00;;
3280;SDS011;1652;51.31805600;6.20194400;2023-11-19T09:36:35;26.70;;;4.87;;
3280;SDS011;1652;51.31805600;6.20194400;2023-11-19T09:39:02;24.57;;;4.47;;
3280;SDS011;1652;51.31805600;6.20194400;2023-11-19T09:41:30;22.73;;;5.27;;
3280;SDS011;1652;51.31805600;6.20194400;2023-11-19T09:43:58;24.47;;;4.53;;
3280;SDS011;1652;51.31805600;6.20194400;2023-11-19T09:46:25;27.47;;;5.70;;
3280;SDS011;1652;51.31805600;6.20194400;2023-11-19T09:48:53;22.67;;;4.40;;
3280;SDS011;1652;51.31805600;6.20194400;2023-11-19T09:51:21;19.87;;;4.70;;
3280;SDS011;1652;51.31805600;6.20194400;2023-11-19T09:53:48;33.47;;;5.90;;
3280;SDS011;1652;51.31805600;6.20194400;2023-11-19T09:56:16;20.00;;;4.77;;
3280;SDS011;1652;51.31805600;6.20194400;2023-11-19T09:58:43;27.23;;;4.73;;
3280;SDS011;1652;51.31805600;6.20194400;2023-11-19T10:01:10;19.07;;;4.20;;
3280;SDS011;1652;51.31805600;6.20194400;2023-11-19T10:03:41;25.40;;;4.90;;
3280;SDS011;1652;51.31805600;6.20194400;2023-11-19T10:06:10;23.83;;;4.67;;
3280;SDS011;1652;51.31805600;6.20194400;2023-11-19T10:08:38;19.30;;;5.00;;
3280;SDS011;1652;51.31805600;6.20194400;2023-11-19T10:11:08;33.63;;;9.13;;
3280;SDS011;1652;51.31805600;6.20194400;2023-11-19T10:13:40;18.40;;;6.03;;
3280;SDS011;1652;51.31805600;6.20194400;2023-11-19T10:16:09;25.37;;;7.80;;
3280;SDS011;1652;51.31805600;6.20194400;2023-11-19T10:18:47;28.63;;;6.10;;
3280;SDS011;1652;51.31805600;6.20194400;2023-11-19T10:21:19;16.37;;;5.53;;
3280;SDS011;1652;51.31805600;6.20194400;2023-11-19T10:23:50;27.33;;;4.03;;
3280;SDS011;1652;51.31805600;6.20194400;2023-11-19T10:26:18;19.83;;;3.90;;
3280;SDS011;1652;51.31805600;6.20194400;2023-11-19T10:28:46;20.93;;;4.73;;
3280;SDS011;1652;51.31805600;6.20194400;2023-11-19T10:31:14;25.47;;;4.60;;
3280;SDS011;1652;51.31805600;6.20194400;2023-11-19T10:33:42;31.10;;;5.63;;
3280;SDS011;1652;51.31805600;6.20194400;2023-11-19T10:36:12;39.70;;;5.33;;
3280;SDS011;1652;51.31805600;6.20194400;2023-11-19T10:38:39;22.23;;;5.30;;
3280;SDS011;1652;51.31805600;6.20194400;2023-11-19T10:41:07;21.60;;;5.13;;
3280;SDS011;1652;51.31805600;6.20194400;2023-11-19T10:43:43;30.00;;;9.03;;
3280;SDS011;1652;51.31805600;6.20194400;2023-11-19T10:46:11;22.37;;;6.30;;
3280;SDS011;1652;51.31805600;6.20194400;2023-11-19T10:48:40;21.60;;;4.93;;
3280;SDS011;1652;51.31805600;6.20194400;2023-11-19T10:51:07;15.20;;;4.10;;
3280;SDS011;1652;51.31805600;6.20194400;2023-11-19T10:53:37;16.87;;;4.23;;
3280;SDS011;1652;51.31805600;6.20194400;2023-11-19T10:56:06;25.53;;;4.60;;
3280;SDS011;1652;51.31805600;6.20194400;2023-11-19T10:58:38;19.07;;;5.33;;
3280;SDS011;1652;51.31805600;6.20194400;2023-11-19T11:01:13;17.83;;;4.10;;
3280;SDS011;1652;51.31805600;6.20194400;2023-11-19T11:03:47;14.23;;;3.00;;
3280;SDS011;1652;51.31805600;6.20194400;2023-11-19T11:06:18;20.20;;;4.60;;
3280;SDS011;1652;51.31805600;6.20194400;2023-11-19T11:08:46;23.20;;;4.23;;
3280;SDS011;1652;51.31805600;6.20194400;2023-11-19T11:11:14;12.30;;;3.80;;
3280;SDS011;1652;51.31805600;6.20194400;2023-11-19T11:13:43;16.30;;;4.10;;
3280;SDS011;1652;51.31805600;6.20194400;2023-11-19T11:16:12;19.63;;;4.10;;
3280;SDS011;1652;51.31805600;6.20194400;2023-11-19T11:18:40;18.87;;;4.20;;
3280;SDS011;1652;51.31805600;6.20194400;2023-11-19T11:21:08;21.73;;;4.33;;
3280;SDS011;1652;51.31805600;6.20194400;2023-11-19T11:26:25;12.57;;;3.50;;
3280;SDS011;1652;51.31805600;6.20194400;2023-11-19T11:32:45;24.33;;;4.27;;
3280;SDS011;1652;51.31805600;6.20194400;2023-11-19T11:38:15;19.67;;;4.43;;
3280;SDS011;1652;51.31805600;6.20194400;2023-11-19T11:43:53;26.57;;;5.67;;
3280;SDS011;1652;51.31805600;6.20194400;2023-11-19T11:49:04;22.67;;;4.20;;
3280;SDS011;1652;51.31805600;6.20194400;2023-11-19T12:02:09;17.40;;;4.63;;
3280;SDS011;1652;51.31805600;6.20194400;2023-11-19T12:04:38;20.60;;;4.07;;
3280;SDS011;1652;51.31805600;6.20194400;2023-11-19T12:07:17;37.23;;;5.00;;
3280;SDS011;1652;51.31805600;6.20194400;2023-11-19T12:09:53;21.57;;;4.20;;
3280;SDS011;1652;51.31805600;6.20194400;2023-11-19T12:12:33;26.13;;;4.00;;
3280;SDS011;1652;51.31805600;6.20194400;2023-11-19T12:15:03;17.07;;;4.27;;
3280;SDS011;1652;51.31805600;6.20194400;2023-11-19T12:20:07;14.50;;;3.63;;
3280;SDS011;1652;51.31805600;6.20194400;2023-11-19T12:22:37;19.60;;;4.13;;
3280;SDS011;1652;51.31805600;6.20194400;2023-11-19T12:25:08;29.93;;;4.80;;
3280;SDS011;1652;51.31805600;6.20194400;2023-11-19T12:27:37;15.87;;;3.60;;
3280;SDS011;1652;51.31805600;6.20194400;2023-11-19T12:30:07;31.97;;;4.60;;
3280;SDS011;1652;51.31805600;6.20194400;2023-11-19T12:35:09;19.37;;;3.93;;
3280;SDS011;1652;51.31805600;6.20194400;2023-11-19T12:37:43;17.40;;;4.60;;
3280;SDS011;1652;51.31805600;6.20194400;2023-11-19T12:40:14;25.20;;;5.63;;
3280;SDS011;1652;51.31805600;6.20194400;2023-11-19T12:42:44;17.00;;;5.37;;
3280;SDS011;1652;51.31805600;6.20194400;2023-11-19T12:45:12;21.50;;;5.67;;
3280;SDS011;1652;51.31805600;6.20194400;2023-11-19T12:47:40;23.23;;;5.63;;
3280;SDS011;1652;51.31805600;6.20194400;2023-11-19T12:50:07;22.07;;;4.20;;
3280;SDS011;1652;51.31805600;6.20194400;2023-11-19T12:52:35;16.97;;;3.67;;
3280;SDS011;1652;51.31805600;6.20194400;2023-11-19T12:55:04;23.70;;;5.30;;
3280;SDS011;1652;51.31805600;6.20194400;2023-11-19T12:57:39;18.90;;;4.40;;
3280;SDS011;1652;51.31805600;6.20194400;2023-11-19T13:00:08;25.63;;;4.70;;
3280;SDS011;1652;51.31805600;6.20194400;2023-11-19T13:02:49;29.10;;;3.50;;
3280;SDS011;1652;51.31805600;6.20194400;2023-11-19T13:05:21;21.30;;;4.53;;
3280;SDS011;1652;51.31805600;6.20194400;2023-11-19T13:07:59;22.17;;;4.97;;
3280;SDS011;1652;51.31805600;6.20194400;2023-11-19T13:10:27;20.90;;;5.23;;
3280;SDS011;1652;51.31805600;6.20194400;2023-11-19T13:13:02;26.60;;;3.33;;
3280;SDS011;1652;51.31805600;6.20194400;2023-11-19T13:15:33;16.20;;;4.43;;
3280;SDS011;1652;51.31805600;6.20194400;2023-11-19T13:18:03;10.27;;;3.33;;
3280;SDS011;1652;51.31805600;6.20194400;2023-11-19T13:20:30;23.70;;;3.57;;
3280;SDS011;1652;51.31805600;6.20194400;2023-11-19T13:22:58;15.80;;;2.90;;
3280;SDS011;1652;51.31805600;6.20194400;2023-11-19T13:25:26;22.13;;;3.53;;
3280;SDS011;1652;51.31805600;6.20194400;2023-11-19T13:27:54;19.13;;;5.23;;
3280;SDS011;1652;51.31805600;6.20194400;2023-11-19T13:30:22;20.47;;;5.10;;
3280;SDS011;1652;51.31805600;6.20194400;2023-11-19T13:32:53;24.97;;;3.93;;
3280;SDS011;1652;51.31805600;6.20194400;2023-11-19T13:35:23;11.57;;;4.90;;
3280;SDS011;1652;51.31805600;6.20194400;2023-11-19T13:37:51;18.47;;;3.53;;
3280;SDS011;1652;51.31805600;6.20194400;2023-11-19T13:40:18;20.63;;;6.63;;
3280;SDS011;1652;51.31805600;6.20194400;2023-11-19T13:42:46;16.20;;;3.00;;